Aviation Digital Data Service (ADDS)

Output produced by METARs form (2006 UTC 24 November 2014)
found at http://aviationweather.gov/adds/metars/
 
KORH 241726Z 2418/2518 21013KT 3SM -SHRA BR OVC008 
     FM250300 23014G24KT 1SM BR OVC004 
     FM250700 23013G21KT 1SM BR OVC004 
     FM251200 24012KT 1SM BR SCT025 BKN250 
     FM251400 24012KT P6SM FEW250